Time;durP1;ratioP1;P1;durP2;ratioP2;P2;SDS_P1;SDS_P2;PMS_P1;PMS_P2;Temp;Humidity;BMP_temperature;BMP_pressure;BME280_temperature;BME280_humidity;BME280_pressure;Samples;Min_cycle;Max_cycle;Signal;HPM_P1;HPM_P2
2023/09/02 00:00:29;;;;;;;;;;;;;;;28.54;27.34;100607.56;5114855;28;19912;-66
2023/09/02 00:02:54;;;;;;;;;;;;;;;28.48;27.48;100608.78;5099525;28;20420;-66
2023/09/02 00:05:19;;;;;;;;;;;;;;;28.47;27.30;100611.84;5094350;28;19947;-65
2023/09/02 00:07:44;;;;;;;;;;;;;;;28.44;27.39;100606.97;5094419;28;19958;-66
2023/09/02 00:10:10;;;;;;;;;;;;;;;28.45;27.43;100609.41;5093876;28;20376;-66
2023/09/02 00:12:35;;;;;;;;;;;;;;;28.40;27.18;100612.28;5094304;28;19919;-66
2023/09/02 00:15:00;;;;;;;;;;;;;;;28.36;27.13;100614.84;5094328;28;19912;-66
2023/09/02 00:17:29;;;;;;;;;;;;;;;28.26;26.71;100608.72;5093939;28;19917;-66
2023/09/02 00:19:54;;;;;;;;;;;;;;;28.20;26.85;100616.31;5094143;28;19916;-66
2023/09/02 00:22:20;;;;;;;;;;;;;;;28.13;26.43;100621.44;5093989;28;20374;-66
2023/09/02 00:24:45;;;;;;;;;;;;;;;28.07;26.57;100615.19;5093991;28;20345;-66
2023/09/02 00:27:10;;;;;;;;;;;;;;;27.97;26.43;100616.22;5093876;28;19912;-66
2023/09/02 00:29:35;;;;;;;;;;;;;;;27.89;26.49;100616.09;5093845;28;19916;-66
2023/09/02 00:32:01;;;;;;;;;;;;;;;27.85;26.36;100628.88;5093806;28;19919;-66
2023/09/02 00:34:26;;;;;;;;;;;;;;;27.75;26.61;100629.91;5093752;28;19916;-66
2023/09/02 00:36:52;;;;;;;;;;;;;;;27.64;26.64;100620.16;5093792;28;19916;-65
2023/09/02 00:39:17;;;;;;;;;;;;;;;27.54;26.68;100621.97;5093623;28;19919;-66
2023/09/02 00:41:46;;;;;;;;;;;;;;;27.47;26.75;100620.72;5093620;28;19916;-65
2023/09/02 00:44:12;;;;;;;;;;;;;;;27.37;26.71;100624.50;5093511;28;19924;-66
2023/09/02 00:46:37;;;;;;;;;;;;;;;27.28;26.78;100621.59;5093429;28;19964;-66
2023/09/02 00:49:03;;;;;;;;;;;;;;;27.22;26.89;100626.38;5088453;28;20364;-65
2023/09/02 00:51:29;;;;;;;;;;;;;;;27.16;27.00;100633.09;5073345;28;19920;-66
2023/09/02 00:53:54;;;;;;;;;;;;;;;27.08;26.77;100632.94;5072096;28;19979;-66
2023/09/02 00:56:20;;;;;;;;;;;;;;;26.92;26.64;100630.44;5101046;28;19919;-66
2023/09/02 00:58:45;;;;;;;;;;;;;;;26.83;27.01;100630.31;5113235;28;19942;-66
2023/09/02 01:01:11;;;;;;;;;;;;;;;26.78;27.00;100629.56;5112659;28;19919;-65
2023/09/02 01:03:38;;;;;;;;;;;;;;;26.69;26.98;100623.09;5082733;28;20293;-66
2023/09/02 01:06:03;;;;;;;;;;;;;;;26.57;27.16;100626.25;5075953;28;19912;-66
2023/09/02 01:08:29;;;;;;;;;;;;;;;26.53;26.96;100625.22;5093119;28;19923;-65
2023/09/02 01:10:55;;;;;;;;;;;;;;;26.45;27.17;100624.78;5093014;28;19916;-66
2023/09/02 01:13:20;;;;;;;;;;;;;;;26.34;27.18;100627.97;5092268;28;19919;-66
2023/09/02 01:15:45;;;;;;;;;;;;;;;26.29;26.94;100623.34;5076827;28;19962;-66
2023/09/02 01:18:10;;;;;;;;;;;;;;;26.26;26.80;100637.69;5072804;28;19971;-66
2023/09/02 01:20:56;;;;;;;;;;;;;;;26.24;26.88;100631.66;5072710;28;19920;-66
2023/09/02 01:23:32;;;;;;;;;;;;;;;26.18;27.02;100638.34;5050941;28;20380;-66
2023/09/02 01:26:12;;;;;;;;;;;;;;;26.07;26.71;100635.69;5072764;28;20514;-66
2023/09/02 01:28:40;;;;;;;;;;;;;;;26.02;26.99;100643.19;5072553;28;19919;-66
2023/09/02 01:31:07;;;;;;;;;;;;;;;25.96;26.79;100639.69;5072610;28;19924;-65
2023/09/02 01:33:32;;;;;;;;;;;;;;;25.93;26.87;100644.94;5082988;28;20078;-65
2023/09/02 01:35:58;;;;;;;;;;;;;;;25.89;27.13;100641.94;5092494;28;20022;-66
2023/09/02 01:38:28;;;;;;;;;;;;;;;25.82;26.82;100639.56;5092557;28;19941;-65
2023/09/02 01:40:54;;;;;;;;;;;;;;;25.83;27.26;100643.09;5091114;28;19923;-65
2023/09/02 01:43:20;;;;;;;;;;;;;;;25.78;27.16;100634.91;5076731;28;19917;-65
2023/09/02 01:45:46;;;;;;;;;;;;;;;25.75;27.32;100646.50;5072157;28;19991;-66
2023/09/02 01:48:12;;;;;;;;;;;;;;;25.76;27.18;100632.47;5072431;28;20016;-66
2023/09/02 01:50:38;;;;;;;;;;;;;;;25.72;27.09;100628.63;5072280;28;19961;-65
2023/09/02 01:53:04;;;;;;;;;;;;;;;25.63;27.36;100633.97;5072391;28;20046;-66
2023/09/02 01:55:30;;;;;;;;;;;;;;;25.63;27.19;100636.72;5083908;28;19937;-66
2023/09/02 01:57:56;;;;;;;;;;;;;;;25.61;27.26;100636.19;5072256;28;20022;-66
2023/09/02 02:00:21;;;;;;;;;;;;;;;25.57;27.11;100634.31;5072608;28;19912;-66
2023/09/02 02:02:49;;;;;;;;;;;;;;;25.53;27.38;100633.25;5080014;28;19919;-66
2023/09/02 02:05:15;;;;;;;;;;;;;;;25.48;27.13;100639.59;5092324;28;19924;-66
2023/09/02 02:07:41;;;;;;;;;;;;;;;25.45;27.36;100645.69;5092395;28;19923;-66
2023/09/02 02:10:10;;;;;;;;;;;;;;;25.42;27.08;100647.09;5091299;28;19919;-66
2023/09/02 02:12:37;;;;;;;;;;;;;;;25.43;27.15;100651.50;5092550;28;19912;-66
2023/09/02 02:15:03;;;;;;;;;;;;;;;25.42;27.17;100651.78;5092859;28;19912;-66
2023/09/02 02:17:29;;;;;;;;;;;;;;;25.37;27.19;100651.81;5096432;28;19923;-66
2023/09/02 02:19:54;;;;;;;;;;;;;;;25.25;27.30;100665.94;5096390;28;19922;-66
2023/09/02 02:22:20;;;;;;;;;;;;;;;25.23;27.58;100668.13;5096427;28;20065;-64
2023/09/02 02:24:45;;;;;;;;;;;;;;;25.33;27.56;100670.81;5096184;28;19920;-66
2023/09/02 02:27:10;;;;;;;;;;;;;;;25.22;27.38;100671.97;5096463;28;19916;-66
2023/09/02 02:29:35;;;;;;;;;;;;;;;25.18;27.39;100668.16;5096385;28;20339;-66
2023/09/02 02:32:01;;;;;;;;;;;;;;;25.11;27.46;100676.72;5096157;28;19935;-66
2023/09/02 02:34:26;;;;;;;;;;;;;;;25.14;27.67;100673.41;5096181;28;19916;-66
2023/09/02 02:36:51;;;;;;;;;;;;;;;25.12;27.63;100679.19;5096025;28;19920;-66
2023/09/02 02:39:16;;;;;;;;;;;;;;;25.05;27.33;100683.38;5094793;28;20399;-66
2023/09/02 02:41:42;;;;;;;;;;;;;;;25.01;27.48;100682.31;5096098;28;20376;-66
2023/09/02 02:44:07;;;;;;;;;;;;;;;25.00;27.73;100683.38;5095819;28;19916;-66
2023/09/02 02:46:32;;;;;;;;;;;;;;;24.98;27.88;100691.94;5095640;28;19912;-66
2023/09/02 02:48:58;;;;;;;;;;;;;;;24.95;27.41;100695.25;5095654;28;19919;-66
2023/09/02 02:51:23;;;;;;;;;;;;;;;24.93;27.41;100684.53;5095744;28;19916;-66
2023/09/02 02:53:48;;;;;;;;;;;;;;;24.95;27.64;100697.19;5094922;28;19912;-66
2023/09/02 02:56:14;;;;;;;;;;;;;;;24.98;27.55;100699.34;5095279;28;20395;-66
2023/09/02 02:58:40;;;;;;;;;;;;;;;24.95;27.54;100702.69;5095761;28;19981;-66
2023/09/02 03:01:06;;;;;;;;;;;;;;;24.94;27.56;100704.59;5096263;28;20353;-66
2023/09/02 03:03:32;;;;;;;;;;;;;;;24.97;27.82;100708.72;5086303;28;19993;-66
2023/09/02 03:06:01;;;;;;;;;;;;;;;24.95;28.04;100703.50;5085366;28;19920;-66
2023/09/02 03:08:27;;;;;;;;;;;;;;;24.95;27.77;100708.19;5075816;28;20321;-66
2023/09/02 03:10:57;;;;;;;;;;;;;;;24.93;27.84;100717.50;5075835;28;19942;-66
2023/09/02 03:13:26;;;;;;;;;;;;;;;24.85;27.75;100707.13;5075199;28;19913;-66
2023/09/02 03:15:53;;;;;;;;;;;;;;;24.77;27.71;100715.94;5074801;28;20365;-66
2023/09/02 03:18:19;;;;;;;;;;;;;;;24.74;27.64;100719.28;5073651;28;19992;-66
2023/09/02 03:20:44;;;;;;;;;;;;;;;24.66;27.65;100711.63;5074743;28;20012;-66
2023/09/02 03:23:09;;;;;;;;;;;;;;;24.61;27.73;100708.88;5074311;28;19978;-66
2023/09/02 03:25:35;;;;;;;;;;;;;;;24.57;27.96;100710.56;5081621;28;19919;-66
2023/09/02 03:28:00;;;;;;;;;;;;;;;24.59;28.22;100709.19;5094125;28;19916;-66
2023/09/02 03:30:26;;;;;;;;;;;;;;;24.57;28.06;100708.63;5095299;28;19912;-66
2023/09/02 03:32:51;;;;;;;;;;;;;;;24.51;28.17;100706.97;5094706;28;19916;-66
2023/09/02 03:35:16;;;;;;;;;;;;;;;24.45;28.30;100711.69;5095036;28;19916;-66
2023/09/02 03:37:43;;;;;;;;;;;;;;;24.44;28.26;100707.31;5095035;28;19924;-66
2023/09/02 03:40:08;;;;;;;;;;;;;;;24.43;28.06;100710.31;5094698;28;20304;-66
2023/09/02 03:42:33;;;;;;;;;;;;;;;24.42;28.42;100703.19;5094676;28;19947;-66
2023/09/02 03:44:59;;;;;;;;;;;;;;;24.45;28.16;100710.84;5095060;28;19916;-65
2023/09/02 03:47:24;;;;;;;;;;;;;;;24.40;28.25;100719.94;5094772;28;19962;-66
2023/09/02 03:49:51;;;;;;;;;;;;;;;24.38;28.35;100721.31;5094675;28;19923;-66
2023/09/02 03:52:16;;;;;;;;;;;;;;;24.31;28.58;100713.38;5094756;28;20007;-66
2023/09/02 03:54:41;;;;;;;;;;;;;;;24.30;28.08;100715.28;5094248;28;20388;-66
2023/09/02 03:57:07;;;;;;;;;;;;;;;24.29;28.38;100718.31;5114730;28;19916;-66
2023/09/02 03:59:32;;;;;;;;;;;;;;;24.27;28.70;100723.25;5106487;28;20014;-66
2023/09/02 04:01:57;;;;;;;;;;;;;;;24.25;28.32;100723.53;5087206;28;19919;-66
2023/09/02 04:04:24;;;;;;;;;;;;;;;24.21;28.17;100729.88;5073845;28;20009;-66
2023/09/02 04:06:49;;;;;;;;;;;;;;;24.19;28.54;100732.09;5074998;28;19920;-66
2023/09/02 04:09:15;;;;;;;;;;;;;;;24.15;28.70;100729.06;5074172;28;19912;-66
2023/09/02 04:11:40;;;;;;;;;;;;;;;24.10;28.71;100742.78;5073955;28;19917;-66
2023/09/02 04:14:05;;;;;;;;;;;;;;;24.14;28.64;100733.75;5074042;28;20280;-66
2023/09/02 04:16:31;;;;;;;;;;;;;;;24.14;28.45;100743.88;5073945;28;19938;-66
2023/09/02 04:18:56;;;;;;;;;;;;;;;24.11;28.40;100748.00;5073770;28;19970;-66
2023/09/02 04:21:22;;;;;;;;;;;;;;;24.15;28.67;100749.09;5076422;28;20330;-66
2023/09/02 04:23:47;;;;;;;;;;;;;;;24.19;28.49;100748.56;5093891;28;19918;-67
2023/09/02 04:26:14;;;;;;;;;;;;;;;24.22;28.21;100756.22;5093837;28;19922;-66
2023/09/02 04:28:40;;;;;;;;;;;;;;;24.27;28.47;100745.22;5092377;28;19965;-66
2023/09/02 04:31:05;;;;;;;;;;;;;;;24.32;28.34;100742.47;5093824;28;19920;-66
2023/09/02 04:33:30;;;;;;;;;;;;;;;24.36;28.60;100749.03;5093578;28;19920;-66
2023/09/02 04:35:55;;;;;;;;;;;;;;;24.40;28.51;100750.13;5093624;28;19912;-66
2023/09/02 04:38:21;;;;;;;;;;;;;;;24.43;28.33;100749.56;5093561;28;19951;-66
2023/09/02 04:40:46;;;;;;;;;;;;;;;24.43;28.17;100749.56;5092302;28;19912;-66
2023/09/02 04:43:13;;;;;;;;;;;;;;;24.49;28.08;100755.88;5093385;28;20367;-66
2023/09/02 04:45:39;;;;;;;;;;;;;;;24.54;28.17;100758.63;5093541;28;19923;-66
2023/09/02 04:48:05;;;;;;;;;;;;;;;24.60;28.27;100757.50;5093435;28;20570;-66
2023/09/02 04:50:31;;;;;;;;;;;;;;;24.65;28.33;100762.16;5091389;28;19919;-66
2023/09/02 04:52:57;;;;;;;;;;;;;;;24.63;28.50;100761.63;5092959;28;19919;-66
2023/09/02 04:55:24;;;;;;;;;;;;;;;24.60;28.12;100762.19;5095046;28;19913;-66
2023/09/02 04:57:50;;;;;;;;;;;;;;;24.60;28.48;100760.25;5092959;28;19923;-66
2023/09/02 05:00:15;;;;;;;;;;;;;;;24.59;28.16;100772.34;5092710;28;19912;-66
2023/09/02 05:02:50;;;;;;;;;;;;;;;24.57;28.27;100776.47;5078681;28;20423;-66
2023/09/02 05:05:19;;;;;;;;;;;;;;;24.56;28.30;100778.41;5072348;28;20019;-66
2023/09/02 05:07:44;;;;;;;;;;;;;;;24.56;28.13;100780.31;5072901;28;19916;-66
2023/09/02 05:10:12;;;;;;;;;;;;;;;24.52;28.24;100783.63;5072420;28;20406;-65
2023/09/02 05:12:37;;;;;;;;;;;;;;;24.50;28.17;100780.31;5071681;28;20011;-66
2023/09/02 05:15:03;;;;;;;;;;;;;;;24.46;28.24;100790.22;5072700;28;20329;-66
2023/09/02 05:17:32;;;;;;;;;;;;;;;24.46;28.40;100790.22;5074388;28;19962;-65
2023/09/02 05:19:58;;;;;;;;;;;;;;;24.45;28.10;100787.75;5093014;28;19920;-65
2023/09/02 05:22:23;;;;;;;;;;;;;;;24.39;28.06;100788.84;5092840;28;19912;-66
2023/09/02 05:24:48;;;;;;;;;;;;;;;24.31;28.02;100791.06;5092797;28;20361;-66
2023/09/02 05:27:14;;;;;;;;;;;;;;;24.29;28.15;100786.94;5091795;28;20015;-66
2023/09/02 05:29:41;;;;;;;;;;;;;;;24.28;28.43;100791.63;5091920;28;19919;-66
2023/09/02 05:32:07;;;;;;;;;;;;;;;24.23;28.31;100793.53;5093054;28;19912;-66
2023/09/02 05:34:33;;;;;;;;;;;;;;;24.25;28.43;100792.16;5093068;28;19916;-66
2023/09/02 05:36:58;;;;;;;;;;;;;;;24.22;28.33;100800.13;5091394;28;19922;-66
2023/09/02 05:39:23;;;;;;;;;;;;;;;24.20;28.54;100794.94;5092820;28;19920;-67
2023/09/02 05:41:48;;;;;;;;;;;;;;;24.16;28.63;100799.31;5093039;28;19912;-66
2023/09/02 05:44:14;;;;;;;;;;;;;;;24.11;28.41;100791.91;5092761;28;19912;-66
2023/09/02 05:46:39;;;;;;;;;;;;;;;24.08;28.75;100797.13;5091403;28;19912;-66
2023/09/02 05:49:04;;;;;;;;;;;;;;;24.09;28.62;100796.88;5084591;28;19916;-65
2023/09/02 05:51:29;;;;;;;;;;;;;;;24.07;28.53;100803.72;5077722;28;20288;-65
2023/09/02 05:53:55;;;;;;;;;;;;;;;24.06;28.80;100805.63;5096307;28;19916;-65
2023/09/02 05:56:21;;;;;;;;;;;;;;;24.07;28.61;100803.72;5111123;28;20284;-65
2023/09/02 05:58:46;;;;;;;;;;;;;;;24.07;28.61;100807.28;5117186;28;20348;-65
2023/09/02 06:01:11;;;;;;;;;;;;;;;24.10;28.43;100809.47;5116361;28;19935;-65
2023/09/02 06:03:37;;;;;;;;;;;;;;;24.18;28.55;100812.75;5096427;28;19920;-65
2023/09/02 06:06:11;;;;;;;;;;;;;;;24.18;28.80;100813.56;5096848;28;19970;-65
2023/09/02 06:08:37;;;;;;;;;;;;;;;24.18;28.61;100810.00;5096731;28;20303;-65
2023/09/02 06:11:03;;;;;;;;;;;;;;;24.19;28.72;100811.66;5095238;28;19912;-65
2023/09/02 06:13:30;;;;;;;;;;;;;;;24.16;28.51;100810.28;5096604;28;19943;-65
2023/09/02 06:16:00;;;;;;;;;;;;;;;24.21;28.49;100810.28;5096481;28;20065;-65
2023/09/02 06:18:25;;;;;;;;;;;;;;;24.20;28.60;100816.88;5096178;28;20011;-65
2023/09/02 06:20:51;;;;;;;;;;;;;;;24.23;28.76;100816.31;5096608;28;19995;-66
2023/09/02 06:23:16;;;;;;;;;;;;;;;24.24;28.66;100812.50;5096138;28;20345;-65
2023/09/02 06:25:41;;;;;;;;;;;;;;;24.27;28.80;100817.41;5096336;28;19912;-65
2023/09/02 06:28:07;;;;;;;;;;;;;;;24.30;28.52;100821.53;5096147;28;19939;-65
2023/09/02 06:30:32;;;;;;;;;;;;;;;24.35;28.41;100822.34;5095794;28;20360;-65
2023/09/02 06:32:57;;;;;;;;;;;;;;;24.33;28.74;100829.19;5096386;28;20280;-65
2023/09/02 06:35:22;;;;;;;;;;;;;;;24.40;28.46;100820.69;5096160;28;19998;-65
2023/09/02 06:37:49;;;;;;;;;;;;;;;24.44;28.52;100819.03;5095893;28;20326;-65
2023/09/02 06:40:14;;;;;;;;;;;;;;;24.43;28.19;100823.69;5096018;28;20330;-64
2023/09/02 06:42:39;;;;;;;;;;;;;;;24.45;28.42;100821.50;5095959;28;19965;-64
2023/09/02 06:45:08;;;;;;;;;;;;;;;24.54;28.14;100819.03;5096031;28;19984;-65
2023/09/02 06:47:33;;;;;;;;;;;;;;;24.54;28.03;100817.13;5095940;28;20395;-65
2023/09/02 06:49:58;;;;;;;;;;;;;;;24.57;28.19;100820.41;5095859;28;19912;-65
2023/09/02 06:52:24;;;;;;;;;;;;;;;24.63;28.34;100822.06;5095663;28;19962;-65
2023/09/02 06:54:49;;;;;;;;;;;;;;;24.61;28.37;100819.56;5096474;28;20293;-65
2023/09/02 06:57:15;;;;;;;;;;;;;;;24.58;28.45;100825.63;5112792;28;19915;-65
2023/09/02 06:59:40;;;;;;;;;;;;;;;24.63;28.02;100828.34;5094983;28;19920;-65
2023/09/02 07:02:05;;;;;;;;;;;;;;;24.69;28.47;100827.22;5085747;28;19913;-65
2023/09/02 07:04:30;;;;;;;;;;;;;;;24.75;28.50;100824.47;5093928;28;19927;-65
2023/09/02 07:06:56;;;;;;;;;;;;;;;24.76;28.07;100828.84;5095263;28;20357;-65
2023/09/02 07:09:21;;;;;;;;;;;;;;;24.77;28.12;100833.25;5095415;28;19915;-65
2023/09/02 07:11:46;;;;;;;;;;;;;;;24.81;27.86;100835.16;5095142;28;20027;-65
2023/09/02 07:14:12;;;;;;;;;;;;;;;24.81;28.29;100837.09;5095329;28;19995;-65
2023/09/02 07:16:37;;;;;;;;;;;;;;;24.86;28.09;100835.13;5095321;28;20295;-65
2023/09/02 07:19:03;;;;;;;;;;;;;;;24.90;27.86;100832.66;5095089;28;19969;-65
2023/09/02 07:21:28;;;;;;;;;;;;;;;24.99;28.12;100832.91;5094991;28;19912;-65
2023/09/02 07:23:54;;;;;;;;;;;;;;;25.03;27.80;100831.22;5095199;28;19994;-65
2023/09/02 07:26:19;;;;;;;;;;;;;;;25.07;27.85;100840.53;5095015;28;19919;-65
2023/09/02 07:28:44;;;;;;;;;;;;;;;25.09;27.73;100839.19;5095317;28;20012;-65
2023/09/02 07:31:09;;;;;;;;;;;;;;;25.12;28.00;100833.09;5086097;28;19946;-65
2023/09/02 07:33:35;;;;;;;;;;;;;;;25.16;27.61;100843.53;5074578;28;19912;-65
2023/09/02 07:36:10;;;;;;;;;;;;;;;25.18;27.90;100839.38;5074396;28;19917;-65
2023/09/02 07:38:36;;;;;;;;;;;;;;;25.13;27.58;100842.19;5074385;28;19977;-66
2023/09/02 07:41:01;;;;;;;;;;;;;;;25.20;27.39;100839.13;5088550;28;19947;-65
2023/09/02 07:43:27;;;;;;;;;;;;;;;25.19;27.40;100838.31;5094823;28;19942;-66
2023/09/02 07:45:52;;;;;;;;;;;;;;;25.25;27.57;100839.94;5094490;28;20003;-66
2023/09/02 07:48:17;;;;;;;;;;;;;;;25.28;27.62;100836.63;5094845;28;19951;-66
2023/09/02 07:50:43;;;;;;;;;;;;;;;25.30;27.78;100839.91;5094367;28;20430;-66
2023/09/02 07:53:08;;;;;;;;;;;;;;;25.34;27.93;100845.69;5094458;28;19915;-66
2023/09/02 07:55:33;;;;;;;;;;;;;;;25.28;27.06;100831.13;5101371;28;19912;-65
2023/09/02 07:58:00;;;;;;;;;;;;;;;25.37;27.23;100830.53;5115061;28;19924;-66
2023/09/02 08:00:26;;;;;;;;;;;;;;;25.39;27.23;100836.56;5114496;28;19965;-65
2023/09/02 08:02:51;;;;;;;;;;;;;;;25.41;27.34;100834.38;5099335;28;19920;-66
2023/09/02 08:05:16;;;;;;;;;;;;;;;25.45;27.30;100841.75;5093868;28;19926;-66
2023/09/02 08:07:42;;;;;;;;;;;;;;;25.52;27.52;100846.97;5093980;28;19916;-66
2023/09/02 08:10:07;;;;;;;;;;;;;;;25.56;27.58;100837.03;5094037;28;19961;-66
2023/09/02 08:12:32;;;;;;;;;;;;;;;25.58;27.54;100839.50;5094029;28;19961;-66
2023/09/02 08:14:58;;;;;;;;;;;;;;;25.63;27.53;100837.53;5093800;28;19912;-66
2023/09/02 08:17:23;;;;;;;;;;;;;;;25.69;27.62;100838.31;5093690;28;20438;-66
2023/09/02 08:19:48;;;;;;;;;;;;;;;25.68;27.51;100834.72;5094331;28;19913;-66
2023/09/02 08:22:13;;;;;;;;;;;;;;;25.71;27.26;100838.03;5093919;28;20363;-66
2023/09/02 08:24:39;;;;;;;;;;;;;;;25.63;27.42;100836.69;5094018;28;19916;-66
2023/09/02 08:27:05;;;;;;;;;;;;;;;25.71;27.51;100841.59;5093796;28;20007;-66
2023/09/02 08:29:30;;;;;;;;;;;;;;;25.72;27.07;100843.22;5093760;28;19916;-66
2023/09/02 08:31:56;;;;;;;;;;;;;;;25.77;27.21;100847.88;5093385;28;19920;-66
2023/09/02 08:34:21;;;;;;;;;;;;;;;25.80;27.49;100841.81;5093361;28;19935;-65
2023/09/02 08:36:47;;;;;;;;;;;;;;;25.88;27.27;100850.25;5093404;28;19939;-66
2023/09/02 08:39:12;;;;;;;;;;;;;;;25.98;27.29;100838.38;5093951;28;19918;-65
2023/09/02 08:41:38;;;;;;;;;;;;;;;26.03;27.57;100848.53;5093799;28;19927;-65
2023/09/02 08:44:04;;;;;;;;;;;;;;;26.05;27.38;100843.56;5092824;28;19919;-65
2023/09/02 08:46:31;;;;;;;;;;;;;;;26.15;27.11;100845.38;5071669;28;19912;-66
2023/09/02 08:48:56;;;;;;;;;;;;;;;26.25;27.15;100851.63;5073021;28;20301;-66
2023/09/02 08:51:23;;;;;;;;;;;;;;;26.26;27.41;100849.69;5072773;28;19912;-66
2023/09/02 08:53:50;;;;;;;;;;;;;;;26.36;27.18;100854.31;5070942;28;19912;-66
2023/09/02 08:56:15;;;;;;;;;;;;;;;26.35;26.58;100849.88;5099656;28;20391;-66
2023/09/02 08:58:41;;;;;;;;;;;;;;;26.45;26.72;100850.63;5113472;28;19915;-66
2023/09/02 09:01:07;;;;;;;;;;;;;;;26.40;26.94;100839.66;5113570;28;19931;-66
2023/09/02 09:03:33;;;;;;;;;;;;;;;26.52;26.80;100844.75;5092663;28;20065;-66
2023/09/02 09:05:59;;;;;;;;;;;;;;;26.62;26.32;100836.41;5092919;28;19912;-66
2023/09/02 09:08:25;;;;;;;;;;;;;;;26.70;26.17;100839.66;5091982;28;20004;-66
2023/09/02 09:10:51;;;;;;;;;;;;;;;26.76;26.48;100842.03;5093130;28;20559;-66
2023/09/02 09:13:17;;;;;;;;;;;;;;;26.80;25.80;100843.09;5092901;28;19912;-65
2023/09/02 09:15:43;;;;;;;;;;;;;;;26.86;25.68;100846.63;5092861;28;19912;-65
2023/09/02 09:18:11;;;;;;;;;;;;;;;26.90;26.17;100844.09;5093030;28;19924;-67
2023/09/02 09:20:37;;;;;;;;;;;;;;;27.00;26.01;100839.25;5092828;28;19919;-65
2023/09/02 09:23:07;;;;;;;;;;;;;;;27.09;26.10;100839.44;5093176;28;19916;-65
2023/09/02 09:25:32;;;;;;;;;;;;;;;27.18;26.07;100837.66;5092180;28;19912;-65
2023/09/02 09:28:07;;;;;;;;;;;;;;;27.21;25.91;100841.78;5093084;28;20326;-65
2023/09/02 09:30:32;;;;;;;;;;;;;;;27.22;25.58;100837.88;5093152;28;19916;-65
2023/09/02 09:33:00;;;;;;;;;;;;;;;27.32;25.82;100837.78;5092881;28;19912;-65
2023/09/02 09:35:25;;;;;;;;;;;;;;;27.39;25.87;100838.22;5092840;28;19995;-65
2023/09/02 09:37:54;;;;;;;;;;;;;;;27.49;25.86;100837.28;5092840;28;20010;-65
2023/09/02 09:40:35;;;;;;;;;;;;;;;27.57;25.78;100844.84;5092870;28;19912;-66
2023/09/02 09:43:01;;;;;;;;;;;;;;;27.67;25.64;100841.13;5092652;28;19919;-65
2023/09/02 09:45:27;;;;;;;;;;;;;;;27.74;25.45;100840.75;5092316;28;19923;-65
2023/09/02 09:47:58;;;;;;;;;;;;;;;27.76;25.08;100847.59;5092999;28;20411;-65
2023/09/02 09:50:23;;;;;;;;;;;;;;;27.75;25.35;100845.97;5092941;28;19916;-65
2023/09/02 09:53:02;;;;;;;;;;;;;;;27.92;25.69;100839.94;5092847;28;19935;-65
2023/09/02 09:55:28;;;;;;;;;;;;;;;28.12;25.53;100837.94;5099053;28;19935;-65
2023/09/02 09:57:57;;;;;;;;;;;;;;;27.97;25.01;100836.25;5112842;28;19947;-65
2023/09/02 10:00:26;;;;;;;;;;;;;;;27.98;25.10;100841.47;5097389;28;19912;-65
2023/09/02 10:02:56;;;;;;;;;;;;;;;27.97;25.17;100837.09;5077793;28;19919;-65
2023/09/02 10:05:28;;;;;;;;;;;;;;;28.15;24.87;100837.34;5072066;28;20380;-66
2023/09/02 10:07:59;;;;;;;;;;;;;;;28.30;24.19;100844.53;5072163;28;19919;-65
2023/09/02 10:10:29;;;;;;;;;;;;;;;28.33;24.41;100841.97;5072153;28;20245;-65
2023/09/02 10:12:55;;;;;;;;;;;;;;;28.44;24.82;100839.03;5072169;28;19913;-65
2023/09/02 10:15:24;;;;;;;;;;;;;;;28.58;24.49;100845.41;5084199;28;20400;-65
2023/09/02 10:17:50;;;;;;;;;;;;;;;28.78;24.27;100838.66;5092407;28;20272;-65
2023/09/02 10:20:15;;;;;;;;;;;;;;;29.07;24.36;100846.66;5092099;28;19919;-65
2023/09/02 10:22:43;;;;;;;;;;;;;;;29.30;24.50;100830.94;5091976;28;19948;-65
2023/09/02 10:25:19;;;;;;;;;;;;;;;29.48;23.93;100840.22;5091987;28;19947;-65
2023/09/02 10:27:46;;;;;;;;;;;;;;;29.47;22.83;100844.13;5091746;28;20368;-67
2023/09/02 10:30:17;;;;;;;;;;;;;;;29.67;23.62;100834.53;5092074;28;19951;-67
2023/09/02 10:32:48;;;;;;;;;;;;;;;29.83;23.34;100842.47;5091648;28;19977;-67
2023/09/02 10:35:18;;;;;;;;;;;;;;;30.08;23.31;100843.81;5072137;28;20007;-65
2023/09/02 10:37:46;;;;;;;;;;;;;;;30.05;22.63;100839.72;5074711;28;19916;-66
2023/09/02 10:40:15;;;;;;;;;;;;;;;30.18;21.98;100842.72;5075538;28;19917;-66
2023/09/02 10:42:40;;;;;;;;;;;;;;;30.13;21.74;100849.22;5075509;28;20293;-66
2023/09/02 10:45:06;;;;;;;;;;;;;;;30.24;21.91;100850.59;5075636;28;19920;-66
2023/09/02 10:47:31;;;;;;;;;;;;;;;30.46;21.61;100844.22;5075415;28;20315;-66
2023/09/02 10:49:57;;;;;;;;;;;;;;;30.43;21.61;100853.16;5075304;28;19952;-66
2023/09/02 10:52:22;;;;;;;;;;;;;;;30.63;22.23;100839.88;5075618;28;19919;-66
2023/09/02 10:55:03;;;;;;;;;;;;;;;30.74;21.53;100840.38;5084956;28;19916;-67
2023/09/02 10:57:31;;;;;;;;;;;;;;;30.98;20.97;100837.22;5075260;28;19970;-66
2023/09/02 11:00:12;;;;;;;;;;;;;;;31.16;21.81;100832.53;5075275;28;19959;-66
2023/09/02 11:02:39;;;;;;;;;;;;;;;31.15;20.77;100842.81;5087511;28;20292;-66
2023/09/02 11:05:04;;;;;;;;;;;;;;;31.44;22.22;100839.44;5095273;28;19927;-65
2023/09/02 11:07:30;;;;;;;;;;;;;;;31.55;21.30;100841.91;5095162;28;20222;-66
2023/09/02 11:09:56;;;;;;;;;;;;;;;31.79;20.98;100835.84;5095151;28;19912;-67
2023/09/02 11:12:22;;;;;;;;;;;;;;;32.01;20.84;100838.41;5095163;28;20015;-66
2023/09/02 11:15:08;;;;;;;;;;;;;;;32.20;21.34;100834.50;5095401;28;19912;-66
2023/09/02 11:17:34;;;;;;;;;;;;;;;32.17;20.42;100833.19;5095075;28;19967;-66
2023/09/02 11:20:01;;;;;;;;;;;;;;;32.18;19.92;100843.16;5095301;28;19951;-66
2023/09/02 11:22:45;;;;;;;;;;;;;;;32.52;20.75;100830.31;5094972;28;19943;-66
2023/09/02 11:25:10;;;;;;;;;;;;;;;32.53;20.26;100842.22;5094996;28;19912;-67
2023/09/02 11:27:45;;;;;;;;;;;;;;;32.48;19.64;100840.44;5094859;28;19912;-67
2023/09/02 11:30:11;;;;;;;;;;;;;;;32.71;20.27;100843.00;5094684;28;19923;-67
2023/09/02 11:32:45;;;;;;;;;;;;;;;32.80;19.25;100854.88;5094666;28;19912;-67
2023/09/02 11:35:15;;;;;;;;;;;;;;;32.84;18.36;100847.53;5094374;28;19916;-67
2023/09/02 11:37:40;;;;;;;;;;;;;;;33.33;19.49;100838.72;5094260;28;19923;-67
2023/09/02 11:40:12;;;;;;;;;;;;;;;33.62;18.78;100837.00;5094301;28;19995;-67
2023/09/02 11:42:46;;;;;;;;;;;;;;;33.98;18.58;100833.56;5094207;28;19919;-67
2023/09/02 11:45:14;;;;;;;;;;;;;;;34.21;17.54;100834.00;5094627;28;19916;-67
2023/09/02 11:47:40;;;;;;;;;;;;;;;33.98;17.63;100833.56;5094071;28;19912;-67
2023/09/02 11:50:10;;;;;;;;;;;;;;;34.26;19.53;100827.38;5094158;28;20356;-67
2023/09/02 11:52:35;;;;;;;;;;;;;;;34.31;18.38;100835.53;5094350;28;19935;-67
2023/09/02 11:55:10;;;;;;;;;;;;;;;34.39;17.99;100825.44;5081817;28;19954;-68
2023/09/02 11:57:35;;;;;;;;;;;;;;;34.19;17.04;100843.88;5114631;28;20360;-67
2023/09/02 12:00:00;;;;;;;;;;;;;;;34.04;17.77;100843.31;5114558;28;19923;-67
2023/09/02 12:02:26;;;;;;;;;;;;;;;33.94;18.19;100838.19;5103698;28;19912;-67
2023/09/02 12:04:52;;;;;;;;;;;;;;;33.89;18.46;100838.41;5093957;28;19947;-67
2023/09/02 12:07:18;;;;;;;;;;;;;;;33.91;18.88;100830.53;5093749;28;20246;-67
2023/09/02 12:09:43;;;;;;;;;;;;;;;33.99;17.53;100843.56;5093925;28;19919;-67
2023/09/02 12:12:08;;;;;;;;;;;;;;;34.20;18.86;100845.50;5093802;28;19912;-67
2023/09/02 12:14:40;;;;;;;;;;;;;;;34.48;18.84;100849.25;5094073;28;19919;-67
2023/09/02 12:17:05;;;;;;;;;;;;;;;34.77;18.21;100843.84;5093480;28;20356;-67
2023/09/02 12:19:31;;;;;;;;;;;;;;;35.06;18.38;100840.78;5093703;28;19916;-67
2023/09/02 12:21:57;;;;;;;;;;;;;;;35.40;17.59;100837.81;5092334;28;19923;-67
2023/09/02 12:24:22;;;;;;;;;;;;;;;35.70;18.31;100843.94;5093725;28;19912;-67
2023/09/02 12:26:48;;;;;;;;;;;;;;;35.83;16.12;100853.09;5094012;28;20265;-67
2023/09/02 12:29:15;;;;;;;;;;;;;;;36.13;17.35;100847.09;5093718;28;19959;-67
2023/09/02 12:31:40;;;;;;;;;;;;;;;36.33;17.27;100846.06;5093250;28;19939;-67